Time;durP1;ratioP1;P1;durP2;ratioP2;P2;SDS_P1;SDS_P2;PMS_P1;PMS_P2;Temp;Humidity;BMP_temperature;BMP_pressure;BME280_temperature;BME280_humidity;BME280_pressure;Samples;Min_cycle;Max_cycle;Signal;HPM_P1;HPM_P2
2022/11/26 00:02:29;;;;;;;16.02;7.03;;;5.10;99.90;;;;;;4927338;29;20039;-94
2022/11/26 00:04:56;;;;;;;17.55;6.90;;;5.00;99.90;;;;;;4925518;29;20035;-94
2022/11/26 00:07:25;;;;;;;16.67;7.82;;;5.00;99.90;;;;;;4926576;29;20036;-94
2022/11/26 00:09:52;;;;;;;16.00;7.15;;;5.00;99.90;;;;;;4905783;29;20043;-94
2022/11/26 00:12:26;;;;;;;16.42;7.57;;;4.90;99.90;;;;;;4905236;29;20483;-95
2022/11/26 00:14:52;;;;;;;20.75;7.93;;;5.00;99.90;;;;;;4908941;29;20518;-94
2022/11/26 00:17:19;;;;;;;17.45;7.88;;;5.00;99.90;;;;;;4904592;29;20040;-94
2022/11/26 00:19:45;;;;;;;16.98;7.68;;;5.10;99.90;;;;;;4909568;29;20040;-93
2022/11/26 00:22:27;;;;;;;21.08;8.60;;;5.10;99.90;;;;;;4925974;29;20382;-95
2022/11/26 00:24:54;;;;;;;14.77;7.32;;;5.10;99.90;;;;;;4905790;29;20139;-95
2022/11/26 00:27:23;;;;;;;19.85;7.72;;;5.10;99.90;;;;;;4909434;29;20134;-93
2022/11/26 00:29:49;;;;;;;20.30;7.85;;;5.10;99.90;;;;;;4923353;29;20057;-93
2022/11/26 00:32:23;;;;;;;18.98;8.90;;;5.00;99.90;;;;;;4926464;29;20173;-96
2022/11/26 00:34:49;;;;;;;20.70;8.38;;;5.10;99.90;;;;;;4911516;29;20083;-94
2022/11/26 00:37:27;;;;;;;17.98;8.45;;;5.20;99.90;;;;;;4914650;29;20031;-94
2022/11/26 00:39:54;;;;;;;17.27;8.05;;;5.20;99.90;;;;;;4932624;29;20057;-94
2022/11/26 00:42:20;;;;;;;15.60;8.20;;;5.30;99.90;;;;;;4930867;29;20035;-94
2022/11/26 00:44:46;;;;;;;21.95;8.88;;;5.20;99.90;;;;;;4912270;29;20046;-94
2022/11/26 00:47:12;;;;;;;18.35;8.10;;;5.20;99.90;;;;;;4911600;29;20050;-94
2022/11/26 00:49:38;;;;;;;20.52;8.65;;;5.20;99.90;;;;;;4928645;29;20377;-94
2022/11/26 00:52:11;;;;;;;17.85;7.72;;;5.20;99.90;;;;;;4915641;28;20052;-94
2022/11/26 00:54:37;;;;;;;17.27;8.38;;;5.20;99.90;;;;;;4923645;29;20032;-94
2022/11/26 00:57:02;;;;;;;21.80;9.75;;;5.30;99.90;;;;;;4944592;28;20051;-95
2022/11/26 00:59:28;;;;;;;23.85;8.82;;;5.30;99.90;;;;;;4913311;29;20489;-94
2022/11/26 01:01:54;;;;;;;19.63;8.88;;;5.30;99.90;;;;;;4928464;29;20473;-94
2022/11/26 01:04:19;;;;;;;23.48;8.52;;;5.30;99.90;;;;;;4912130;29;20032;-94
2022/11/26 01:06:45;;;;;;;18.85;8.88;;;5.30;99.90;;;;;;4909880;29;20048;-95
2022/11/26 01:09:17;;;;;;;20.65;8.95;;;5.30;99.90;;;;;;4911598;29;20036;-95
2022/11/26 01:11:43;;;;;;;22.00;9.02;;;5.30;99.90;;;;;;4906892;29;20090;-95
2022/11/26 01:14:14;;;;;;;20.35;8.50;;;5.30;99.90;;;;;;4946845;28;20539;-95
2022/11/26 01:16:41;;;;;;;21.77;9.48;;;5.20;99.90;;;;;;4911559;29;20445;-94
2022/11/26 01:19:11;;;;;;;15.93;8.77;;;5.20;99.90;;;;;;4928834;29;20047;-94
2022/11/26 01:21:36;;;;;;;19.30;9.15;;;5.10;99.90;;;;;;4929508;29;20043;-94
2022/11/26 01:24:02;;;;;;;14.93;8.27;;;5.10;99.90;;;;;;4910622;29;20036;-94
2022/11/26 01:26:33;;;;;;;18.60;9.18;;;5.00;99.90;;;;;;4923502;29;20083;-95
2022/11/26 01:28:59;;;;;;;15.90;7.85;;;5.00;99.90;;;;;;4910752;29;20131;-94
2022/11/26 01:31:28;;;;;;;21.02;8.90;;;4.90;99.90;;;;;;4903315;29;20040;-94
2022/11/26 01:33:54;;;;;;;19.38;8.68;;;4.80;99.90;;;;;;4914550;29;20112;-95
2022/11/26 01:36:26;;;;;;;15.73;7.50;;;4.80;99.90;;;;;;4931023;29;20035;-93
2022/11/26 01:38:54;;;;;;;18.42;9.45;;;4.80;99.90;;;;;;4934875;29;20178;-95
2022/11/26 01:41:51;;;;;;;21.02;8.35;;;4.70;99.90;;;;;;4934075;29;20477;-94
2022/11/26 01:44:21;;;;;;;21.15;8.45;;;4.70;99.90;;;;;;4910210;29;20107;-94
2022/11/26 01:46:48;;;;;;;19.75;8.07;;;4.70;99.90;;;;;;4924018;29;20040;-95
2022/11/26 01:49:40;;;;;;;17.67;8.13;;;4.70;99.90;;;;;;4932207;29;20397;-95
2022/11/26 01:52:10;;;;;;;20.58;9.25;;;4.60;99.90;;;;;;4927804;29;20040;-94
2022/11/26 01:54:38;;;;;;;21.25;10.25;;;4.60;99.90;;;;;;4931925;29;20271;-94
2022/11/26 01:57:28;;;;;;;21.13;9.38;;;4.70;99.90;;;;;;4923208;29;20110;-94
2022/11/26 01:59:58;;;;;;;21.38;9.45;;;4.70;99.90;;;;;;4938503;29;20047;-94
2022/11/26 02:02:26;;;;;;;18.90;9.60;;;4.70;99.90;;;;;;4927683;29;20102;-94
2022/11/26 02:05:16;;;;;;;21.75;8.85;;;4.80;99.90;;;;;;4944159;29;20112;-94
2022/11/26 02:07:42;;;;;;;19.17;8.77;;;4.90;99.90;;;;;;4924877;29;20036;-94
2022/11/26 02:10:09;;;;;;;23.63;10.20;;;4.90;99.90;;;;;;4939680;28;20027;-94
2022/11/26 02:12:35;;;;;;;21.02;9.88;;;4.90;99.90;;;;;;4928901;28;20028;-95
2022/11/26 02:15:01;;;;;;;22.55;10.15;;;5.00;99.90;;;;;;4948373;28;20276;-94
2022/11/26 02:17:35;;;;;;;21.95;8.95;;;4.90;99.90;;;;;;4919199;29;20036;-95
2022/11/26 02:20:19;;;;;;;21.33;10.27;;;4.90;99.90;;;;;;4932221;29;20046;-95
2022/11/26 02:22:48;;;;;;;17.45;9.80;;;4.90;99.90;;;;;;4929198;29;20036;-95
2022/11/26 02:25:19;;;;;;;24.55;10.75;;;4.90;99.90;;;;;;4915234;29;20425;-94
2022/11/26 02:27:45;;;;;;;25.48;9.55;;;4.90;99.90;;;;;;4917798;29;20067;-96
2022/11/26 02:30:16;;;;;;;23.35;8.95;;;4.90;99.90;;;;;;4938233;29;20044;-95
2022/11/26 02:32:50;;;;;;;20.30;8.18;;;4.90;99.90;;;;;;4916990;29;20046;-94
2022/11/26 02:35:29;;;;;;;18.90;8.50;;;4.80;99.90;;;;;;4919058;29;20044;-94
2022/11/26 02:38:05;;;;;;;21.80;10.10;;;4.90;99.90;;;;;;4925237;29;20043;-93
2022/11/26 02:40:31;;;;;;;19.00;9.52;;;4.90;99.90;;;;;;4916357;29;20072;-94
2022/11/26 02:42:57;;;;;;;23.90;9.40;;;4.90;99.90;;;;;;4939665;29;20048;-94
2022/11/26 02:45:32;;;;;;;19.15;9.07;;;4.90;99.90;;;;;;4920815;29;20036;-94
2022/11/26 02:48:17;;;;;;;19.20;9.93;;;5.00;99.90;;;;;;4937819;29;20028;-94
2022/11/26 02:50:52;;;;;;;24.40;10.05;;;4.90;99.90;;;;;;4922692;29;20412;-95
2022/11/26 02:53:22;;;;;;;20.92;9.52;;;4.80;99.90;;;;;;4917233;29;20437;-94
2022/11/26 02:56:04;;;;;;;17.55;9.63;;;4.80;99.90;;;;;;4932046;29;20126;-95
2022/11/26 02:58:31;;;;;;;19.00;9.43;;;4.80;99.90;;;;;;4922465;29;20050;-93
2022/11/26 03:01:00;;;;;;;18.92;9.88;;;4.70;99.90;;;;;;4932744;29;20036;-95
2022/11/26 03:03:31;;;;;;;20.33;9.75;;;4.60;99.90;;;;;;4920876;29;20055;-93
2022/11/26 03:06:03;;;;;;;21.20;9.23;;;4.50;99.90;;;;;;4959916;28;20071;-90
2022/11/26 03:08:31;;;;;;;19.15;8.73;;;4.40;99.90;;;;;;4948542;28;20087;-95
2022/11/26 03:10:56;;;;;;;20.65;10.10;;;4.30;99.90;;;;;;4916740;29;20503;-93
2022/11/26 03:13:22;;;;;;;18.38;9.55;;;4.20;99.90;;;;;;4931326;29;20048;-92
2022/11/26 03:15:48;;;;;;;17.63;8.38;;;4.30;99.90;;;;;;4925794;29;20039;-93
2022/11/26 03:18:13;;;;;;;15.57;8.23;;;4.20;99.90;;;;;;4909159;29;20044;-94
2022/11/26 03:20:39;;;;;;;13.95;8.35;;;4.10;99.90;;;;;;4907246;29;20040;-94
2022/11/26 03:23:05;;;;;;;15.52;7.72;;;4.10;99.90;;;;;;4911102;29;20055;-94
2022/11/26 03:25:30;;;;;;;16.10;8.73;;;4.00;99.90;;;;;;4909952;29;20077;-93
2022/11/26 03:27:56;;;;;;;16.92;9.02;;;4.00;99.90;;;;;;4924901;29;20058;-94
2022/11/26 03:30:22;;;;;;;22.15;10.23;;;3.90;99.90;;;;;;4911467;29;20122;-93
2022/11/26 03:32:47;;;;;;;20.30;10.40;;;4.10;99.90;;;;;;4925958;29;20051;-94
2022/11/26 03:35:13;;;;;;;20.00;9.80;;;4.20;99.90;;;;;;4924670;29;20047;-93
2022/11/26 03:37:39;;;;;;;17.83;9.25;;;4.20;99.90;;;;;;4913223;29;20069;-94
2022/11/26 03:40:05;;;;;;;19.63;9.68;;;4.30;99.90;;;;;;4913771;29;20051;-93
2022/11/26 03:42:31;;;;;;;19.67;10.35;;;4.30;99.90;;;;;;4923632;29;20420;-94
2022/11/26 03:44:57;;;;;;;19.15;10.75;;;4.40;99.90;;;;;;4912647;29;20103;-94
2022/11/26 03:47:22;;;;;;;19.58;10.27;;;4.40;99.90;;;;;;4923642;29;20036;-93
2022/11/26 03:49:48;;;;;;;15.45;9.57;;;4.40;99.90;;;;;;4904530;29;20040;-92
2022/11/26 03:52:14;;;;;;;20.67;10.27;;;4.40;99.90;;;;;;4906516;29;20039;-93
2022/11/26 03:54:39;;;;;;;19.38;10.35;;;4.40;99.90;;;;;;4904322;29;20076;-93
2022/11/26 03:57:05;;;;;;;20.33;9.60;;;4.50;99.90;;;;;;4925837;29;20796;-93
2022/11/26 03:59:31;;;;;;;20.13;10.10;;;4.50;99.90;;;;;;4905350;29;20036;-94
2022/11/26 04:01:56;;;;;;;19.98;10.10;;;4.50;99.90;;;;;;4923201;29;20044;-92
2022/11/26 04:04:22;;;;;;;22.10;9.95;;;4.50;99.90;;;;;;4913950;29;20066;-93
2022/11/26 04:06:47;;;;;;;23.50;11.48;;;4.50;99.90;;;;;;4926406;29;20074;-94
2022/11/26 04:09:13;;;;;;;26.00;11.75;;;4.50;99.90;;;;;;4923266;29;20039;-93
2022/11/26 04:11:39;;;;;;;21.77;10.88;;;4.50;99.90;;;;;;4909174;29;20047;-93
2022/11/26 04:14:04;;;;;;;21.67;10.93;;;4.60;99.90;;;;;;4919461;29;20536;-93
2022/11/26 04:16:30;;;;;;;20.65;10.07;;;4.60;99.90;;;;;;4909762;29;20043;-93
2022/11/26 04:18:55;;;;;;;19.52;11.02;;;4.60;99.90;;;;;;4911588;29;20051;-91
2022/11/26 04:21:21;;;;;;;21.42;11.70;;;4.60;99.90;;;;;;4925696;29;20051;-93
2022/11/26 04:23:47;;;;;;;23.08;10.63;;;4.60;99.90;;;;;;4923971;29;20043;-93
2022/11/26 04:26:12;;;;;;;20.33;11.82;;;4.60;99.90;;;;;;4933680;28;20055;-92
2022/11/26 04:28:38;;;;;;;26.02;13.13;;;4.60;99.90;;;;;;4948489;28;20039;-94
2022/11/26 04:31:04;;;;;;;21.05;10.70;;;4.60;99.90;;;;;;4926805;28;20039;-93
2022/11/26 04:33:30;;;;;;;25.80;12.45;;;4.60;99.90;;;;;;4933582;28;20045;-94
2022/11/26 04:35:55;;;;;;;22.85;10.27;;;4.60;99.90;;;;;;4946140;28;20396;-93
2022/11/26 04:38:21;;;;;;;21.58;11.18;;;4.60;99.90;;;;;;4930280;28;20041;-94
2022/11/26 04:40:47;;;;;;;24.55;9.80;;;4.60;99.90;;;;;;4933630;28;20049;-93
2022/11/26 04:43:13;;;;;;;19.08;9.25;;;4.70;99.90;;;;;;4935573;28;20046;-93
2022/11/26 04:45:38;;;;;;;19.75;9.38;;;4.60;99.90;;;;;;4943690;29;20102;-94
2022/11/26 04:48:05;;;;;;;20.00;10.57;;;4.60;99.90;;;;;;4930768;28;20407;-95
2022/11/26 04:50:30;;;;;;;19.98;10.70;;;4.60;99.90;;;;;;4927064;28;20098;-93
2022/11/26 04:52:56;;;;;;;27.38;11.35;;;4.60;99.90;;;;;;4933477;28;20806;-93
2022/11/26 04:55:22;;;;;;;18.42;10.55;;;4.60;99.90;;;;;;4943705;28;20065;-94
2022/11/26 04:57:48;;;;;;;22.10;10.85;;;4.60;99.90;;;;;;4922804;28;20090;-94
2022/11/26 05:00:17;;;;;;;23.98;10.63;;;4.60;99.90;;;;;;4944722;28;20043;-93
2022/11/26 05:02:44;;;;;;;24.23;10.63;;;4.60;99.90;;;;;;4928038;28;20050;-93
2022/11/26 05:05:11;;;;;;;21.63;11.55;;;4.60;99.90;;;;;;4963528;28;20043;-94
2022/11/26 05:07:37;;;;;;;21.23;10.90;;;4.50;99.90;;;;;;4932428;28;20042;-92
2022/11/26 05:10:04;;;;;;;20.73;10.95;;;4.50;99.90;;;;;;4929704;28;20038;-94
2022/11/26 05:12:30;;;;;;;20.13;9.50;;;4.50;99.90;;;;;;4949219;28;20058;-93
2022/11/26 05:14:56;;;;;;;22.88;11.73;;;4.50;99.90;;;;;;4944685;28;20047;-93
2022/11/26 05:17:21;;;;;;;21.67;11.52;;;4.40;99.90;;;;;;4952982;28;20057;-93
2022/11/26 05:19:47;;;;;;;22.50;11.82;;;4.50;99.90;;;;;;4944802;28;20031;-93
2022/11/26 05:22:13;;;;;;;22.67;11.38;;;4.40;99.90;;;;;;4946635;28;20498;-94
2022/11/26 05:24:38;;;;;;;25.13;10.55;;;4.40;99.90;;;;;;4933108;28;20039;-94
2022/11/26 05:27:04;;;;;;;24.10;11.95;;;4.40;99.90;;;;;;4943998;28;20062;-94
2022/11/26 05:29:30;;;;;;;22.38;11.52;;;4.40;99.90;;;;;;4970049;28;20046;-93
2022/11/26 05:31:56;;;;;;;20.55;11.60;;;4.30;99.90;;;;;;4951366;28;20341;-93
2022/11/26 05:34:22;;;;;;;19.63;11.65;;;4.30;99.90;;;;;;4928616;28;20035;-94
2022/11/26 05:36:47;;;;;;;23.23;11.35;;;4.30;99.90;;;;;;4928547;28;20078;-93
2022/11/26 05:39:13;;;;;;;24.63;11.30;;;4.30;99.90;;;;;;4948556;29;20511;-94
2022/11/26 05:41:39;;;;;;;21.48;11.52;;;4.20;99.90;;;;;;4928628;28;20043;-92
2022/11/26 05:44:04;;;;;;;23.45;11.48;;;4.20;99.90;;;;;;4943636;28;20053;-94
2022/11/26 05:46:30;;;;;;;18.17;9.60;;;4.20;99.90;;;;;;4924744;28;20043;-93
2022/11/26 05:48:56;;;;;;;24.67;11.63;;;4.20;99.90;;;;;;4929280;28;20047;-94
2022/11/26 05:51:22;;;;;;;21.85;11.75;;;4.10;99.90;;;;;;4927743;28;20125;-95
2022/11/26 05:53:47;;;;;;;26.65;12.45;;;4.20;99.90;;;;;;4952893;28;20045;-94
2022/11/26 05:56:13;;;;;;;26.27;11.98;;;4.20;99.90;;;;;;4951241;28;20081;-94
2022/11/26 05:58:42;;;;;;;22.42;11.68;;;4.30;99.90;;;;;;4938444;28;20577;-94
2022/11/26 06:01:08;;;;;;;25.20;12.48;;;4.30;99.90;;;;;;4937900;28;20042;-94
2022/11/26 06:03:35;;;;;;;22.77;11.40;;;4.30;99.90;;;;;;4926957;28;20050;-94
2022/11/26 06:06:01;;;;;;;21.05;11.43;;;4.30;99.90;;;;;;4949931;28;20035;-93
2022/11/26 06:08:27;;;;;;;21.20;11.70;;;4.30;99.90;;;;;;4930961;28;20043;-93
2022/11/26 06:10:52;;;;;;;27.05;11.10;;;4.30;99.90;;;;;;4938136;28;20174;-93
2022/11/26 06:13:18;;;;;;;24.50;12.18;;;4.30;99.90;;;;;;4950934;28;20031;-93
2022/11/26 06:15:44;;;;;;;31.98;12.68;;;4.30;99.90;;;;;;4947437;28;20040;-94
2022/11/26 06:18:09;;;;;;;49.10;13.52;;;4.20;99.90;;;;;;4939489;28;20035;-94
2022/11/26 06:20:35;;;;;;;33.55;12.43;;;4.20;99.90;;;;;;4930165;28;20055;-93
2022/11/26 06:23:01;;;;;;;41.65;11.18;;;4.20;99.90;;;;;;4944114;28;20041;-93
2022/11/26 06:25:27;;;;;;;33.53;12.23;;;4.20;99.90;;;;;;4938037;28;20035;-94
2022/11/26 06:27:54;;;;;;;42.60;13.23;;;4.20;99.90;;;;;;4936834;28;20134;-92
2022/11/26 06:30:20;;;;;;;34.33;12.05;;;4.30;99.90;;;;;;4959687;28;20526;-92
2022/11/26 06:32:46;;;;;;;30.73;12.43;;;4.20;99.90;;;;;;4952856;28;20090;-93
2022/11/26 06:35:12;;;;;;;34.30;10.82;;;4.20;99.90;;;;;;4931789;28;20031;-93
2022/11/26 06:37:37;;;;;;;56.08;15.35;;;4.20;99.90;;;;;;4940947;28;20038;-93
2022/11/26 06:40:03;;;;;;;31.05;12.10;;;4.30;99.90;;;;;;4958654;28;20039;-92
2022/11/26 06:42:29;;;;;;;41.10;12.00;;;4.20;99.90;;;;;;4955073;28;20049;-93
2022/11/26 06:44:55;;;;;;;41.85;12.57;;;4.30;99.90;;;;;;4952074;28;20042;-93
2022/11/26 06:47:21;;;;;;;42.50;12.80;;;4.20;99.90;;;;;;4944305;28;20475;-93
2022/11/26 06:49:46;;;;;;;36.42;12.40;;;4.20;99.90;;;;;;4934779;28;20042;-93
2022/11/26 06:52:12;;;;;;;25.70;12.30;;;4.20;99.90;;;;;;4951703;28;20043;-94
2022/11/26 06:54:38;;;;;;;25.75;10.52;;;4.20;99.90;;;;;;4934303;28;20054;-93
2022/11/26 06:57:04;;;;;;;32.63;11.43;;;4.20;99.90;;;;;;4954789;28;20519;-94
2022/11/26 06:59:30;;;;;;;41.55;12.57;;;4.20;99.90;;;;;;4954166;28;20517;-93
2022/11/26 07:01:55;;;;;;;34.00;12.45;;;4.20;99.90;;;;;;4935458;28;20043;-92
2022/11/26 07:04:21;;;;;;;36.38;11.98;;;4.20;99.90;;;;;;4932467;28;20594;-93
2022/11/26 07:06:47;;;;;;;33.95;11.45;;;4.10;99.90;;;;;;4948520;28;20477;-93
2022/11/26 07:09:13;;;;;;;36.85;12.27;;;4.20;99.90;;;;;;4950759;28;20466;-93
2022/11/26 07:11:40;;;;;;;45.97;14.05;;;4.20;99.90;;;;;;4949017;28;20130;-92
2022/11/26 07:14:07;;;;;;;39.95;13.20;;;4.10;99.90;;;;;;4948695;28;20133;-93
2022/11/26 07:16:33;;;;;;;41.88;13.15;;;4.10;99.90;;;;;;4932132;28;20562;-94
2022/11/26 07:18:59;;;;;;;23.75;10.25;;;4.10;99.90;;;;;;4933485;29;20066;-92
2022/11/26 07:21:26;;;;;;;32.63;11.90;;;4.10;99.90;;;;;;4950972;28;20047;-94
2022/11/26 07:23:53;;;;;;;33.45;11.88;;;4.10;99.90;;;;;;4934536;28;20038;-94
2022/11/26 07:26:20;;;;;;;24.05;10.45;;;4.10;99.90;;;;;;4948964;28;20708;-92
2022/11/26 07:28:46;;;;;;;26.27;10.90;;;4.10;99.90;;;;;;4939538;28;20424;-93
2022/11/26 07:31:17;;;;;;;26.77;11.32;;;4.00;99.90;;;;;;4954056;28;20031;-90
2022/11/26 07:33:44;;;;;;;;;;;4.10;99.90;;;;;;4946449;28;20071;-91
2022/11/26 07:36:16;;;;;;;23.42;11.52;;;4.00;99.90;;;;;;4950536;28;19925;-93
2022/11/26 07:38:41;;;;;;;22.15;9.95;;;4.00;99.90;;;;;;4936337;28;20043;-91
2022/11/26 07:41:11;;;;;;;25.73;10.50;;;4.10;99.90;;;;;;4947999;28;20480;-92
2022/11/26 07:43:38;;;;;;;19.83;10.65;;;4.00;99.90;;;;;;4945880;28;20419;-92
2022/11/26 07:46:05;;;;;;;23.98;11.57;;;4.10;99.90;;;;;;4937821;28;20383;-92
2022/11/26 07:48:32;;;;;;;28.40;10.57;;;4.10;99.90;;;;;;4932477;28;20043;-92
2022/11/26 07:50:59;;;;;;;26.33;12.35;;;4.10;99.90;;;;;;4930472;28;20047;-92
2022/11/26 07:53:28;;;;;;;23.15;11.48;;;4.10;99.90;;;;;;4944407;28;20055;-92
2022/11/26 07:55:54;;;;;;;23.00;10.90;;;4.30;99.90;;;;;;4936486;28;20051;-92
2022/11/26 07:58:20;;;;;;;20.70;11.00;;;4.10;99.90;;;;;;4930038;28;20051;-91
2022/11/26 08:00:45;;;;;;;25.33;11.48;;;4.20;99.90;;;;;;4924196;28;20098;-93
2022/11/26 08:03:11;;;;;;;22.35;11.00;;;4.20;99.90;;;;;;4950248;28;20188;-92
2022/11/26 08:05:44;;;;;;;22.35;10.80;;;4.30;99.90;;;;;;4947201;28;20038;-92
2022/11/26 08:08:10;;;;;;;24.58;11.18;;;4.30;99.90;;;;;;4933650;28;20038;-92
2022/11/26 08:10:37;;;;;;;20.25;11.20;;;4.40;99.90;;;;;;4943361;28;20130;-91
2022/11/26 08:13:03;;;;;;;21.90;11.77;;;4.40;99.90;;;;;;4935619;28;20039;-93
2022/11/26 08:15:29;;;;;;;24.35;12.25;;;4.50;99.90;;;;;;4952178;28;20325;-93
2022/11/26 08:17:55;;;;;;;24.55;12.95;;;4.50;99.90;;;;;;4930736;28;20046;-93
2022/11/26 08:20:22;;;;;;;24.20;12.68;;;4.60;99.90;;;;;;4931043;28;20385;-93
2022/11/26 08:22:48;;;;;;;20.35;11.82;;;4.60;99.90;;;;;;4933896;28;20142;-91
2022/11/26 08:25:14;;;;;;;22.15;12.02;;;4.70;99.90;;;;;;4945156;29;20532;-93
2022/11/26 08:27:40;;;;;;;22.98;12.68;;;4.70;99.90;;;;;;4931516;29;20074;-93
2022/11/26 08:30:07;;;;;;;24.52;12.43;;;4.70;99.90;;;;;;4930502;29;20044;-94
2022/11/26 08:32:33;;;;;;;26.27;12.70;;;4.80;99.90;;;;;;4931675;29;20048;-93
2022/11/26 08:34:59;;;;;;;26.33;13.40;;;4.80;99.90;;;;;;4932689;29;20489;-92
2022/11/26 08:37:25;;;;;;;24.50;12.40;;;4.90;99.90;;;;;;4930044;29;20056;-93
2022/11/26 08:39:51;;;;;;;28.05;12.82;;;4.90;99.90;;;;;;4944750;28;20039;-91
2022/11/26 08:42:17;;;;;;;21.98;12.02;;;4.90;99.90;;;;;;4944647;28;20036;-92
2022/11/26 08:44:43;;;;;;;22.27;12.13;;;5.00;99.90;;;;;;4948275;28;20162;-93
2022/11/26 08:47:08;;;;;;;27.42;13.98;;;5.00;99.90;;;;;;4930527;29;20497;-91
2022/11/26 08:49:34;;;;;;;27.23;13.25;;;5.10;99.90;;;;;;4917447;29;20229;-91
2022/11/26 08:52:00;;;;;;;19.83;12.30;;;5.20;99.90;;;;;;4930016;29;20127;-92
2022/11/26 08:54:26;;;;;;;23.08;12.77;;;5.30;99.90;;;;;;4929904;29;20087;-93
2022/11/26 08:56:52;;;;;;;29.65;14.48;;;5.40;99.90;;;;;;4945125;28;20499;-93
2022/11/26 08:59:21;;;;;;;28.13;12.95;;;5.30;99.90;;;;;;4944816;29;20051;-91
2022/11/26 09:01:47;;;;;;;26.88;14.40;;;5.40;99.90;;;;;;4903949;29;20083;-93
2022/11/26 09:04:13;;;;;;;30.63;15.00;;;5.40;99.90;;;;;;4931275;29;20043;-93
2022/11/26 09:06:40;;;;;;;32.03;14.65;;;5.40;99.90;;;;;;4932034;29;20051;-93
2022/11/26 09:09:13;;;;;;;32.53;15.13;;;5.50;99.90;;;;;;4930912;29;20048;-86
2022/11/26 09:11:49;;;;;;;25.80;14.82;;;5.60;99.90;;;;;;4922460;29;20048;-89
2022/11/26 09:14:20;;;;;;;27.83;15.85;;;5.60;99.90;;;;;;4921933;29;20044;-90
2022/11/26 09:16:46;;;;;;;30.98;15.48;;;5.60;99.90;;;;;;4913938;29;20417;-90
2022/11/26 09:19:13;;;;;;;29.80;14.68;;;5.70;99.90;;;;;;4916829;29;20062;-89
2022/11/26 09:21:39;;;;;;;28.27;14.13;;;5.70;99.90;;;;;;4920899;29;20056;-89
2022/11/26 09:24:05;;;;;;;26.65;14.38;;;5.70;99.90;;;;;;4944524;28;20083;-90
2022/11/26 09:26:32;;;;;;;25.73;13.80;;;5.80;99.90;;;;;;4945922;28;20067;-89
2022/11/26 09:28:58;;;;;;;30.10;16.35;;;5.80;99.90;;;;;;4944245;28;20379;-91
2022/11/26 09:31:24;;;;;;;32.53;16.90;;;5.90;99.90;;;;;;4950004;28;20119;-91
2022/11/26 09:33:50;;;;;;;27.83;16.52;;;5.90;99.90;;;;;;4965441;28;20043;-89
2022/11/26 09:36:17;;;;;;;28.25;16.58;;;6.00;99.90;;;;;;4943668;29;20043;-90
2022/11/26 09:38:43;;;;;;;30.25;17.00;;;6.00;99.90;;;;;;4925851;29;20471;-89
2022/11/26 09:41:18;;;;;;;28.17;16.85;;;6.00;99.90;;;;;;4934491;29;20374;-88
2022/11/26 09:44:10;;;;;;;29.85;15.45;;;6.10;99.90;;;;;;4939755;28;20082;-90
2022/11/26 09:46:46;;;;;;;37.47;19.42;;;6.10;99.90;;;;;;4936085;29;20044;-90
2022/11/26 09:49:16;;;;;;;30.88;15.15;;;6.20;99.90;;;;;;4920636;29;20643;-89
2022/11/26 09:51:45;;;;;;;36.15;18.63;;;6.20;99.90;;;;;;4901318;29;20103;-89
2022/11/26 09:54:20;;;;;;;34.28;18.55;;;6.30;99.90;;;;;;4923241;29;20043;-89
2022/11/26 09:56:49;;;;;;;35.13;18.15;;;6.40;99.90;;;;;;4928710;29;20116;-90
2022/11/26 09:59:17;;;;;;;31.45;16.75;;;6.40;99.90;;;;;;4928836;29;20099;-89
2022/11/26 10:01:43;;;;;;;29.15;16.27;;;6.40;99.90;;;;;;4924286;29;20058;-92
2022/11/26 10:04:20;;;;;;;40.33;21.58;;;6.40;99.90;;;;;;4914375;29;20467;-91
2022/11/26 10:06:46;;;;;;;33.10;17.83;;;6.50;99.90;;;;;;4925355;29;20375;-89
2022/11/26 10:09:38;;;;;;;35.55;19.67;;;6.60;99.90;;;;;;4927064;29;20036;-91
2022/11/26 10:12:22;;;;;;;42.33;22.13;;;6.60;99.90;;;;;;4927149;29;20059;-90
2022/11/26 10:15:19;;;;;;;44.67;25.05;;;6.70;99.90;;;;;;4913014;29;20392;-91
2022/11/26 10:17:57;;;;;;;46.92;26.20;;;6.70;99.90;;;;;;4925874;29;20065;-85
2022/11/26 10:20:41;;;;;;;48.63;22.52;;;6.80;99.90;;;;;;4949098;29;20086;-87
2022/11/26 10:23:20;;;;;;;45.85;22.23;;;6.80;99.90;;;;;;4928816;29;20082;-87
2022/11/26 10:25:52;;;;;;;47.03;22.55;;;6.80;99.90;;;;;;4919144;29;20048;-87
2022/11/26 10:28:42;;;;;;;57.58;28.60;;;6.90;99.90;;;;;;4919474;29;20044;-87
2022/11/26 10:31:19;;;;;;;54.17;25.27;;;6.90;99.90;;;;;;4923959;29;20047;-87
2022/11/26 10:34:02;;;;;;;58.33;25.08;;;6.90;99.90;;;;;;4922952;29;20307;-87
2022/11/26 10:36:38;;;;;;;51.72;25.15;;;7.00;99.90;;;;;;4926003;29;20060;-87
2022/11/26 10:39:06;;;;;;;54.92;24.33;;;7.00;99.90;;;;;;4922530;29;20058;-87
2022/11/26 10:41:34;;;;;;;51.95;22.50;;;7.00;99.90;;;;;;4926091;29;20047;-87
2022/11/26 10:44:28;;;;;;;76.55;47.97;;;7.00;99.90;;;;;;4926545;29;20497;-87
2022/11/26 10:46:55;;;;;;;56.22;26.27;;;7.10;99.90;;;;;;4915547;29;20062;-87
2022/11/26 10:49:26;;;;;;;85.05;49.65;;;7.10;99.90;;;;;;4922774;29;20044;-87
2022/11/26 10:52:02;;;;;;;83.32;50.22;;;7.20;99.90;;;;;;4922563;29;20048;-87
2022/11/26 10:54:35;;;;;;;58.40;27.15;;;7.30;99.90;;;;;;4925531;29;20087;-87
2022/11/26 10:57:10;;;;;;;63.67;29.58;;;7.20;99.90;;;;;;4922564;29;20397;-86
2022/11/26 10:59:52;;;;;;;55.47;27.92;;;7.20;99.90;;;;;;4925012;29;20063;-88
2022/11/26 11:02:35;;;;;;;61.28;31.10;;;7.30;99.90;;;;;;4922456;29;20055;-87
2022/11/26 11:05:04;;;;;;;86.60;49.92;;;7.30;99.90;;;;;;4925030;29;20050;-88
2022/11/26 11:07:36;;;;;;;60.75;32.45;;;7.40;99.90;;;;;;4918658;29;20068;-87
2022/11/26 11:10:08;;;;;;;55.17;26.17;;;7.50;99.90;;;;;;4916856;29;20072;-87
2022/11/26 11:12:35;;;;;;;77.25;48.67;;;7.50;99.90;;;;;;4906156;29;20051;-86
2022/11/26 11:15:19;;;;;;;70.88;47.78;;;7.60;99.90;;;;;;4918995;29;20094;-86
2022/11/26 11:17:53;;;;;;;55.15;27.98;;;7.60;99.90;;;;;;4906136;29;20074;-86
2022/11/26 11:20:27;;;;;;;52.72;24.42;;;7.60;99.90;;;;;;4924305;29;20052;-87
2022/11/26 11:23:17;;;;;;;72.80;45.88;;;7.70;99.90;;;;;;4922752;29;20139;-86
2022/11/26 11:25:58;;;;;;;67.40;44.83;;;7.80;99.90;;;;;;4918787;29;20059;-87
2022/11/26 11:28:27;;;;;;;57.50;28.08;;;7.80;99.90;;;;;;4918265;29;20067;-86
2022/11/26 11:31:16;;;;;;;52.08;27.42;;;7.80;99.90;;;;;;4919346;29;20048;-86
2022/11/26 11:33:42;;;;;;;67.60;44.72;;;7.80;99.90;;;;;;4918623;29;20055;-87
2022/11/26 11:36:10;;;;;;;66.93;46.17;;;7.90;99.90;;;;;;4924651;29;20131;-87
2022/11/26 11:38:48;;;;;;;67.00;44.20;;;8.00;99.90;;;;;;4917537;29;20047;-88
2022/11/26 11:41:25;;;;;;;69.00;43.85;;;8.00;99.90;;;;;;4920812;29;20067;-87
2022/11/26 11:43:58;;;;;;;54.47;25.90;;;8.00;99.90;;;;;;4920175;29;20044;-88
2022/11/26 11:46:46;;;;;;;43.90;24.85;;;8.00;99.90;;;;;;4925608;29;20395;-87
2022/11/26 11:49:38;;;;;;;62.42;41.28;;;8.00;99.90;;;;;;4927741;29;20054;-88
2022/11/26 11:52:16;;;;;;;61.25;41.22;;;8.10;99.90;;;;;;4948799;28;20032;-88
2022/11/26 11:54:58;;;;;;;49.53;25.95;;;8.10;99.90;;;;;;4947414;29;20050;-88
2022/11/26 11:57:36;;;;;;;53.97;38.30;;;8.10;99.90;;;;;;4942276;28;20051;-88
2022/11/26 12:00:14;;;;;;;51.28;28.00;;;8.20;99.90;;;;;;4933082;29;20055;-89
2022/11/26 12:03:11;;;;;;;59.40;40.47;;;8.20;99.90;;;;;;4926995;29;20044;-88
2022/11/26 12:06:06;;;;;;;57.08;39.63;;;8.30;99.90;;;;;;4931105;29;20099;-88
2022/11/26 12:08:40;;;;;;;56.35;37.53;;;8.30;99.90;;;;;;4927668;29;20094;-87
2022/11/26 12:11:30;;;;;;;59.17;40.10;;;8.30;99.90;;;;;;4932642;29;20048;-87
2022/11/26 12:14:18;;;;;;;53.95;36.50;;;8.40;99.90;;;;;;4926339;29;20063;-89
2022/11/26 12:16:48;;;;;;;44.75;24.30;;;8.40;99.90;;;;;;4921792;29;20040;-89
2022/11/26 12:19:35;;;;;;;50.78;34.28;;;8.40;99.90;;;;;;4922015;29;20059;-88
2022/11/26 12:22:12;;;;;;;42.28;24.80;;;8.40;99.90;;;;;;4921500;29;21431;-88
2022/11/26 12:24:46;;;;;;;40.35;22.45;;;8.50;99.90;;;;;;4921158;29;20040;-88
2022/11/26 12:27:44;;;;;;;50.38;32.95;;;8.40;99.90;;;;;;4926451;29;20075;-90
2022/11/26 12:30:20;;;;;;;48.80;32.50;;;8.50;99.90;;;;;;4923591;29;20047;-90
2022/11/26 12:33:06;;;;;;;49.78;32.78;;;8.50;99.90;;;;;;4939720;29;20073;-90
2022/11/26 12:35:34;;;;;;;43.20;23.55;;;8.50;99.90;;;;;;4935761;28;20060;-90
2022/11/26 12:38:07;;;;;;;45.80;31.50;;;8.50;99.90;;;;;;4933910;29;20494;-90
2022/11/26 12:40:43;;;;;;;48.55;33.35;;;8.60;99.90;;;;;;4936809;29;20090;-90
2022/11/26 12:43:24;;;;;;;46.00;30.98;;;8.60;99.90;;;;;;4943861;29;20047;-89
2022/11/26 12:46:17;;;;;;;49.17;31.88;;;8.60;99.90;;;;;;4940896;29;20047;-90
2022/11/26 12:48:47;;;;;;;45.08;31.67;;;8.60;99.90;;;;;;4944816;28;20087;-89
2022/11/26 12:51:32;;;;;;;51.30;32.20;;;8.70;99.90;;;;;;4946430;29;20101;-90
2022/11/26 12:54:14;;;;;;;36.47;19.73;;;8.70;99.90;;;;;;4939527;29;20075;-90
2022/11/26 12:56:50;;;;;;;48.63;30.92;;;8.60;99.90;;;;;;4940821;29;20058;-90